Time;durP1;ratioP1;P1;durP2;ratioP2;P2;SDS_P1;SDS_P2;PMS_P1;PMS_P2;Temp;Humidity;BMP_temperature;BMP_pressure;BME280_temperature;BME280_humidity;BME280_pressure;Samples;Min_cycle;Max_cycle;Signal;HPM_P1;HPM_P2
2021/05/26 00:00:32;;;;;;;9.40;5.25;;;;;;;15.42;59.78;100368.28;4944096;29;20035;-57
2021/05/26 00:02:58;;;;;;;10.32;5.10;;;;;;;15.33;59.15;100364.19;4937145;29;20339;-57
2021/05/26 00:05:23;;;;;;;10.50;5.75;;;;;;;15.40;59.34;100369.22;4925570;29;20032;-57
2021/05/26 00:07:49;;;;;;;10.30;5.82;;;;;;;15.35;60.35;100366.75;4925521;29;20032;-57
2021/05/26 00:10:16;;;;;;;8.27;5.32;;;;;;;15.33;59.96;100366.81;4925583;29;20043;-57
2021/05/26 00:12:43;;;;;;;8.43;6.22;;;;;;;15.35;59.38;100364.16;4925422;29;20039;-58
2021/05/26 00:15:10;;;;;;;7.63;4.85;;;;;;;15.37;59.44;100367.56;4926183;29;20044;-58
2021/05/26 00:17:36;;;;;;;8.95;4.57;;;;;;;15.35;59.31;100358.94;4929774;29;20043;-58
2021/05/26 00:20:03;;;;;;;8.93;4.90;;;;;;;15.33;58.97;100361.59;4941531;29;20212;-58
2021/05/26 00:22:29;;;;;;;10.90;5.13;;;;;;;15.36;59.06;100361.50;4943201;29;20032;-59
2021/05/26 00:24:55;;;;;;;10.90;5.10;;;;;;;15.26;59.62;100364.41;4928328;29;20027;-57
2021/05/26 00:27:20;;;;;;;8.00;5.25;;;;;;;15.26;58.94;100364.41;4925458;29;20138;-60
2021/05/26 00:29:47;;;;;;;8.65;5.38;;;;;;;15.26;58.13;100370.47;4932017;29;20058;-58
2021/05/26 00:32:14;;;;;;;8.10;4.72;;;;;;;15.09;58.60;100372.72;4943371;29;20122;-58
2021/05/26 00:34:40;;;;;;;9.40;4.80;;;;;;;15.08;59.13;100374.50;4943640;29;20035;-57
2021/05/26 00:37:05;;;;;;;8.45;5.03;;;;;;;14.93;59.52;100367.94;4926709;29;20036;-58
2021/05/26 00:39:32;;;;;;;7.18;4.63;;;;;;;14.83;59.74;100366.50;4925226;29;20031;-56
2021/05/26 00:41:58;;;;;;;10.73;5.20;;;;;;;14.80;59.97;100375.25;4925086;29;20052;-57
2021/05/26 00:44:24;;;;;;;7.03;4.93;;;;;;;14.63;60.40;100365.28;4925093;29;20595;-58
2021/05/26 00:46:50;;;;;;;9.40;5.70;;;;;;;14.64;59.72;100372.22;4925344;29;20071;-58
2021/05/26 00:49:16;;;;;;;9.77;5.28;;;;;;;14.72;59.87;100355.50;4925035;29;20056;-58
2021/05/26 00:51:42;;;;;;;7.97;5.20;;;;;;;14.79;59.91;100364.88;4925115;29;20028;-58
2021/05/26 00:54:08;;;;;;;8.48;5.28;;;;;;;14.77;60.24;100358.88;4942110;29;20208;-58
2021/05/26 00:56:36;;;;;;;8.77;5.22;;;;;;;14.83;60.13;100361.28;4943431;29;20047;-58
2021/05/26 00:59:04;;;;;;;8.93;5.32;;;;;;;14.50;59.87;100296.13;4926129;29;20032;-57
2021/05/26 01:01:30;;;;;;;12.63;6.10;;;;;;;14.73;60.71;100347.66;4924812;29;20031;-57
2021/05/26 01:03:56;;;;;;;8.32;4.85;;;;;;;14.79;60.13;100362.25;4926985;29;20036;-58
2021/05/26 01:06:22;;;;;;;11.20;5.90;;;;;;;14.63;61.41;100364.44;4923297;29;20055;-57
2021/05/26 01:08:49;;;;;;;11.98;6.28;;;;;;;14.55;61.72;100368.97;4924023;29;20024;-58
2021/05/26 01:11:15;;;;;;;9.20;5.50;;;;;;;14.58;61.03;100367.16;4938844;29;20090;-59
2021/05/26 01:13:41;;;;;;;11.85;5.55;;;;;;;14.44;61.99;100366.66;4940960;29;20232;-59
2021/05/26 01:16:07;;;;;;;9.55;5.75;;;;;;;14.34;62.83;100371.25;4928408;29;20027;-57
2021/05/26 01:18:35;;;;;;;8.88;6.05;;;;;;;14.29;62.33;100376.59;4928451;29;20028;-57
2021/05/26 01:21:06;;;;;;;12.60;5.88;;;;;;;14.35;62.27;100370.38;4928616;29;20038;-57
2021/05/26 01:23:33;;;;;;;12.50;5.85;;;;;;;14.45;62.08;100368.34;4928644;29;20031;-57
2021/05/26 01:26:00;;;;;;;11.63;5.28;;;;;;;14.19;61.53;100312.56;4928907;29;20358;-58
2021/05/26 01:28:28;;;;;;;9.40;5.78;;;;;;;14.37;61.65;100375.56;4946792;29;20036;-58
2021/05/26 01:31:01;;;;;;;10.10;5.88;;;;;;;14.32;62.07;100376.53;4945652;29;20042;-58
2021/05/26 01:33:27;;;;;;;10.30;6.13;;;;;;;13.94;62.64;100328.84;4928639;29;20099;-57
2021/05/26 01:35:53;;;;;;;9.98;5.20;;;;;;;14.24;62.54;100361.97;4946693;29;20042;-58
2021/05/26 01:38:23;;;;;;;8.98;5.55;;;;;;;14.25;62.44;100380.19;4946388;29;20055;-58
2021/05/26 01:40:49;;;;;;;10.60;5.85;;;;;;;14.34;61.48;100371.25;4946427;29;20027;-57
2021/05/26 01:43:15;;;;;;;10.20;5.90;;;;;;;14.26;62.51;100368.84;4935527;29;20043;-57
2021/05/26 01:45:41;;;;;;;8.48;5.20;;;;;;;14.11;62.03;100364.88;4934101;29;20324;-57
2021/05/26 01:48:07;;;;;;;7.35;5.50;;;;;;;14.18;62.99;100368.19;4942935;29;20055;-57
2021/05/26 01:50:34;;;;;;;8.15;5.55;;;;;;;14.10;63.50;100370.97;4928018;29;20058;-57
2021/05/26 01:53:05;;;;;;;10.50;5.55;;;;;;;14.23;63.57;100371.53;4927870;29;20036;-58
2021/05/26 01:55:32;;;;;;;9.10;5.38;;;;;;;14.27;63.70;100387.94;4928005;29;20351;-57
2021/05/26 01:57:59;;;;;;;9.43;5.25;;;;;;;14.19;64.17;100375.09;4928028;29;20024;-59
2021/05/26 02:00:25;;;;;;;10.45;4.72;;;;;;;14.11;64.22;100375.31;4927546;29;20036;-59
2021/05/26 02:02:51;;;;;;;9.05;5.55;;;;;;;14.24;63.94;100375.00;4930677;29;20028;-57
2021/05/26 02:05:17;;;;;;;7.30;5.10;;;;;;;14.28;63.84;100369.66;4944666;29;20023;-57
2021/05/26 02:07:44;;;;;;;6.85;4.88;;;;;;;14.39;63.49;100371.13;4932082;29;20576;-57
2021/05/26 02:10:13;;;;;;;8.63;5.25;;;;;;;14.36;63.76;100385.09;4927686;29;20095;-57
2021/05/26 02:12:40;;;;;;;10.57;5.55;;;;;;;14.36;64.52;100366.84;4927535;29;20197;-57
2021/05/26 02:15:10;;;;;;;7.80;5.20;;;;;;;14.12;63.54;100314.50;4927528;29;20035;-58
2021/05/26 02:17:35;;;;;;;8.15;5.00;;;;;;;14.55;63.95;100367.25;4927396;29;20034;-58
2021/05/26 02:20:02;;;;;;;11.80;5.93;;;;;;;14.52;63.87;100364.69;4927605;29;20052;-59
2021/05/26 02:22:28;;;;;;;10.07;6.22;;;;;;;14.50;64.54;100363.88;4930741;29;20330;-59
2021/05/26 02:24:53;;;;;;;11.18;5.68;;;;;;;14.61;64.12;100374.03;4945638;29;20039;-58
2021/05/26 02:27:19;;;;;;;8.10;5.28;;;;;;;14.66;63.50;100362.63;4938296;29;20031;-58
2021/05/26 02:29:45;;;;;;;10.10;5.97;;;;;;;14.78;64.35;100371.00;4945804;29;20031;-58
2021/05/26 02:32:11;;;;;;;8.75;5.07;;;;;;;14.82;63.23;100364.78;4945537;29;20027;-58
2021/05/26 02:34:38;;;;;;;11.07;5.97;;;;;;;14.86;63.60;100373.41;4945690;29;20338;-58
2021/05/26 02:37:05;;;;;;;8.50;5.60;;;;;;;14.93;63.41;100360.13;4945328;29;20171;-58
2021/05/26 02:39:31;;;;;;;7.78;5.32;;;;;;;15.00;63.19;100358.19;4940802;29;20036;-59
2021/05/26 02:41:56;;;;;;;8.82;5.28;;;;;;;15.11;62.86;100363.13;4934999;29;20031;-59
2021/05/26 02:44:22;;;;;;;11.00;6.07;;;;;;;15.21;63.29;100366.31;4945727;29;20028;-59
2021/05/26 02:46:49;;;;;;;16.40;6.05;;;;;;;15.30;63.02;100358.19;4944486;29;20308;-59
2021/05/26 02:49:15;;;;;;;11.02;6.22;;;;;;;15.36;62.61;100356.25;4945131;29;20083;-59
2021/05/26 02:51:41;;;;;;;10.35;6.50;;;;;;;15.48;62.60;100354.19;4945346;29;20030;-59
2021/05/26 02:54:08;;;;;;;12.75;6.03;;;;;;;15.56;62.20;100353.94;4944854;29;20090;-58
2021/05/26 02:56:34;;;;;;;12.07;5.97;;;;;;;15.66;62.75;100351.00;4941928;29;20035;-59
2021/05/26 02:59:01;;;;;;;13.18;6.80;;;;;;;15.79;62.69;100358.44;4945001;29;20027;-60
2021/05/26 03:01:26;;;;;;;11.20;7.18;;;;;;;15.83;60.97;100345.25;4945169;29;20027;-58
2021/05/26 03:03:52;;;;;;;11.82;6.78;;;;;;;15.90;61.57;100365.94;4931444;29;20257;-59
2021/05/26 03:06:19;;;;;;;11.85;8.35;;;;;;;15.88;59.75;100359.00;4934249;29;20145;-59
2021/05/26 03:08:44;;;;;;;13.43;8.30;;;;;;;15.92;57.76;100362.38;4926551;29;20294;-60
2021/05/26 03:11:10;;;;;;;12.68;7.55;;;;;;;16.02;58.69;100363.78;4927734;29;20032;-59
2021/05/26 03:13:36;;;;;;;19.95;8.73;;;;;;;15.92;57.38;100358.91;4944723;29;20030;-59
2021/05/26 03:16:02;;;;;;;12.95;8.45;;;;;;;16.12;57.17;100368.69;4944711;29;20031;-58
2021/05/26 03:18:29;;;;;;;13.57;9.00;;;;;;;16.28;57.02;100361.22;4944670;29;20031;-59
2021/05/26 03:20:55;;;;;;;14.73;9.18;;;;;;;16.27;53.79;100357.72;4944453;29;20028;-59
2021/05/26 03:23:20;;;;;;;14.32;9.38;;;;;;;16.17;52.98;100358.94;4944720;29;20031;-60
2021/05/26 03:25:47;;;;;;;15.32;9.32;;;;;;;16.34;53.48;100356.59;4944708;29;20028;-60
2021/05/26 03:28:15;;;;;;;13.63;8.73;;;;;;;16.61;54.15;100359.16;4944498;29;20082;-59
2021/05/26 03:30:42;;;;;;;13.10;8.77;;;;;;;16.74;55.64;100351.72;4944631;29;20035;-60
2021/05/26 03:33:10;;;;;;;18.73;9.95;;;;;;;16.76;53.71;100349.94;4944059;29;20030;-61
2021/05/26 03:35:37;;;;;;;18.20;10.02;;;;;;;16.80;54.74;100346.31;4943361;29;20027;-59
2021/05/26 03:38:02;;;;;;;16.63;8.93;;;;;;;16.71;52.08;100346.63;4944694;29;20364;-60
2021/05/26 03:40:29;;;;;;;16.80;9.18;;;;;;;16.95;53.46;100347.53;4939734;29;20039;-58
2021/05/26 03:42:55;;;;;;;17.58;9.65;;;;;;;16.98;51.52;100349.16;4926178;29;20044;-59
2021/05/26 03:45:21;;;;;;;12.85;9.10;;;;;;;17.28;52.04;100348.91;4942255;29;20067;-58
2021/05/26 03:47:47;;;;;;;20.85;9.35;;;;;;;17.40;50.77;100351.91;4944107;29;20039;-61
2021/05/26 03:50:13;;;;;;;18.08;9.38;;;;;;;17.51;50.75;100343.63;4944388;29;20319;-59
2021/05/26 03:52:44;;;;;;;13.85;8.55;;;;;;;17.69;50.00;100349.91;4944204;29;20418;-60
2021/05/26 03:55:12;;;;;;;16.03;8.93;;;;;;;17.83;49.69;100353.72;4934552;29;20057;-59
2021/05/26 03:57:39;;;;;;;16.20;9.02;;;;;;;17.69;50.33;100347.28;4928043;29;20801;-59
2021/05/26 04:00:07;;;;;;;22.08;12.38;;;;;;;17.81;51.23;100358.19;4938604;29;20032;-60
2021/05/26 04:02:35;;;;;;;21.15;9.23;;;;;;;17.88;51.19;100352.63;4940247;29;20592;-56
2021/05/26 04:05:00;;;;;;;12.02;8.48;;;;;;;17.94;51.42;100354.16;4925405;29;20100;-57
2021/05/26 04:07:26;;;;;;;13.68;8.63;;;;;;;17.92;50.46;100353.38;4925587;29;20023;-57
2021/05/26 04:09:52;;;;;;;18.02;9.18;;;;;;;17.82;49.90;100342.41;4925627;29;20071;-58
2021/05/26 04:12:18;;;;;;;14.38;8.48;;;;;;;17.97;50.19;100351.44;4925300;29;20035;-58
2021/05/26 04:14:44;;;;;;;16.88;8.95;;;;;;;17.73;50.53;100341.00;4925408;29;20044;-58
2021/05/26 04:17:10;;;;;;;14.00;7.47;;;;;;;17.98;50.33;100355.75;4927333;29;20332;-58
2021/05/26 04:19:36;;;;;;;17.48;8.13;;;;;;;18.08;50.62;100353.59;4943731;29;20197;-57
2021/05/26 04:22:02;;;;;;;13.77;8.00;;;;;;;18.23;51.73;100345.09;4943892;29;20066;-57
2021/05/26 04:24:28;;;;;;;19.25;9.02;;;;;;;18.15;50.29;100347.19;4942882;29;20031;-57
2021/05/26 04:26:53;;;;;;;15.18;8.50;;;;;;;18.42;49.66;100353.00;4941648;29;20031;-57
2021/05/26 04:29:19;;;;;;;11.15;7.70;;;;;;;18.40;50.70;100344.38;4942378;29;20032;-57
2021/05/26 04:31:46;;;;;;;12.43;7.80;;;;;;;18.54;49.77;100350.78;4935499;29;20036;-57
2021/05/26 04:34:12;;;;;;;11.82;7.97;;;;;;;18.58;49.90;100344.47;4923659;29;20036;-57
2021/05/26 04:36:38;;;;;;;15.57;8.45;;;;;;;18.44;47.36;100339.81;4923293;29;20047;-57
2021/05/26 04:39:04;;;;;;;13.85;8.02;;;;;;;18.50;50.30;100342.19;4940120;29;20042;-58
2021/05/26 04:41:30;;;;;;;14.52;7.70;;;;;;;18.62;47.85;100346.03;4942255;29;20032;-58
2021/05/26 04:43:56;;;;;;;14.68;7.22;;;;;;;18.74;48.32;100345.50;4944521;29;20327;-57
2021/05/26 04:46:21;;;;;;;16.73;7.30;;;;;;;18.82;48.99;100337.28;4950237;29;20038;-57
2021/05/26 04:48:47;;;;;;;10.80;7.47;;;;;;;18.92;46.74;100346.47;4949218;29;20038;-58
2021/05/26 04:51:13;;;;;;;10.27;7.00;;;;;;;19.07;46.93;100339.69;4946053;29;20032;-58
2021/05/26 04:53:38;;;;;;;13.15;7.03;;;;;;;19.21;48.20;100340.78;4937850;29;20024;-57
2021/05/26 04:56:04;;;;;;;16.77;7.40;;;;;;;19.00;47.24;100337.38;4940031;29;20205;-58
2021/05/26 04:58:30;;;;;;;15.38;6.80;;;;;;;19.41;48.24;100343.34;4949622;29;20075;-58
2021/05/26 05:00:56;;;;;;;12.15;7.05;;;;;;;19.54;45.35;100334.84;4949441;29;20032;-57
2021/05/26 05:03:21;;;;;;;13.77;6.85;;;;;;;19.81;44.65;100332.72;4940103;29;20343;-57
2021/05/26 05:05:47;;;;;;;13.82;7.28;;;;;;;20.07;43.67;100333.19;4931027;29;20030;-58
2021/05/26 05:08:13;;;;;;;15.32;7.35;;;;;;;20.01;44.17;100329.09;4931404;29;20043;-58
2021/05/26 05:10:38;;;;;;;11.82;6.78;;;;;;;20.26;45.10;100318.16;4931218;29;20036;-56
2021/05/26 05:13:04;;;;;;;13.57;7.07;;;;;;;20.38;44.41;100316.69;4931149;29;20040;-57
2021/05/26 05:15:31;;;;;;;16.60;7.47;;;;;;;20.94;43.70;100313.75;4931277;29;20224;-58
2021/05/26 05:18:00;;;;;;;12.45;6.70;;;;;;;20.68;43.59;100311.59;4931102;29;20039;-58
2021/05/26 05:20:26;;;;;;;13.75;7.68;;;;;;;20.58;42.61;100304.22;4930820;29;20032;-58
2021/05/26 05:22:54;;;;;;;14.38;7.40;;;;;;;20.53;43.77;100309.75;4931033;29;20039;-58
2021/05/26 05:25:20;;;;;;;12.00;6.53;;;;;;;20.43;41.61;100301.47;4949883;29;20062;-58
2021/05/26 05:27:46;;;;;;;15.63;7.35;;;;;;;20.42;43.04;100312.97;4949404;29;20059;-58
2021/05/26 05:30:12;;;;;;;14.20;6.60;;;;;;;20.78;43.33;100298.78;4949456;29;20038;-58
2021/05/26 05:32:40;;;;;;;12.15;6.88;;;;;;;20.76;41.56;100253.25;4948205;29;20255;-58
2021/05/26 05:35:06;;;;;;;16.15;7.40;;;;;;;21.14;41.31;100299.50;4932450;29;20027;-57
2021/05/26 05:37:32;;;;;;;16.63;6.90;;;;;;;21.27;42.13;100299.66;4930893;29;20040;-57
2021/05/26 05:39:59;;;;;;;11.80;5.93;;;;;;;21.18;41.45;100304.50;4946315;29;20051;-57
2021/05/26 05:42:25;;;;;;;9.85;5.30;;;;;;;21.26;40.82;100297.94;4937238;29;20039;-56
2021/05/26 05:44:50;;;;;;;9.30;5.28;;;;;;;21.32;39.38;100300.22;4934694;29;20035;-57
2021/05/26 05:47:16;;;;;;;12.02;5.03;;;;;;;21.26;38.40;100305.84;4950901;29;20051;-58
2021/05/26 05:49:42;;;;;;;11.48;4.95;;;;;;;20.95;39.28;100291.75;4943629;29;20043;-57
2021/05/26 05:52:11;;;;;;;13.07;4.85;;;;;;;21.20;38.94;100289.44;4949102;29;20038;-57
2021/05/26 05:54:37;;;;;;;10.23;5.10;;;;;;;21.08;39.29;100298.06;4933562;29;20320;-57
2021/05/26 05:57:04;;;;;;;9.23;4.68;;;;;;;21.17;39.12;100289.63;4946466;29;20020;-58
2021/05/26 05:59:31;;;;;;;13.88;4.38;;;;;;;21.64;39.49;100298.44;4946318;29;20047;-59
2021/05/26 06:01:56;;;;;;;12.18;4.40;;;;;;;21.68;39.00;100299.94;4947227;29;20090;-58
2021/05/26 06:04:22;;;;;;;8.98;4.25;;;;;;;21.76;38.39;100291.59;4926686;29;20059;-58
2021/05/26 06:06:48;;;;;;;9.57;3.90;;;;;;;22.00;39.69;100289.28;4927677;29;20221;-58
2021/05/26 06:09:13;;;;;;;5.70;3.00;;;;;;;21.97;37.53;100301.81;4927925;29;20078;-57
2021/05/26 06:11:55;;;;;;;11.27;3.67;;;;;;;21.82;36.56;100296.53;4927698;29;20028;-58
2021/05/26 06:14:20;;;;;;;9.57;3.63;;;;;;;22.03;37.61;100298.81;4927649;29;20090;-58
2021/05/26 06:16:46;;;;;;;8.25;3.42;;;;;;;22.18;37.06;100289.16;4927376;29;20224;-58
2021/05/26 06:19:12;;;;;;;6.13;3.35;;;;;;;22.22;37.72;100285.38;4927671;29;20027;-58
2021/05/26 06:21:38;;;;;;;7.57;3.03;;;;;;;22.11;35.48;100288.66;4927256;29;20031;-59
2021/05/26 06:24:04;;;;;;;7.80;3.17;;;;;;;22.26;37.13;100293.94;4927260;29;20071;-58
2021/05/26 06:26:31;;;;;;;6.40;2.58;;;;;;;22.19;36.03;100289.06;4927357;29;20028;-58
2021/05/26 06:29:01;;;;;;;6.88;2.72;;;;;;;22.06;35.54;100288.94;4942725;29;20312;-58
2021/05/26 06:31:27;;;;;;;7.93;3.08;;;;;;;22.15;35.89;100282.25;4945707;29;20268;-58
2021/05/26 06:33:53;;;;;;;10.38;3.00;;;;;;;21.82;35.07;100246.41;4930613;29;20095;-58
2021/05/26 06:36:19;;;;;;;9.13;2.80;;;;;;;22.17;35.89;100282.16;4934945;29;20063;-57
2021/05/26 06:38:45;;;;;;;4.70;2.53;;;;;;;22.37;35.98;100286.25;4926985;29;20039;-57
2021/05/26 06:41:11;;;;;;;9.10;2.67;;;;;;;22.41;35.49;100287.78;4936926;29;20030;-57
2021/05/26 06:43:37;;;;;;;5.50;2.78;;;;;;;22.33;34.06;100284.75;4939763;29;20028;-57
2021/05/26 06:46:03;;;;;;;4.93;2.50;;;;;;;22.63;35.66;100278.53;4927335;29;20087;-57
2021/05/26 06:48:28;;;;;;;4.72;2.65;;;;;;;22.77;36.18;100281.16;4938552;29;20032;-57
2021/05/26 06:50:54;;;;;;;9.50;3.25;;;;;;;22.71;36.13;100282.38;4944532;29;20054;-56
2021/05/26 06:53:20;;;;;;;6.65;2.45;;;;;;;22.60;33.90;100276.06;4949753;29;20047;-58
2021/05/26 06:55:46;;;;;;;4.80;2.00;;;;;;;22.34;33.40;100276.75;4950685;29;20233;-57
2021/05/26 06:58:11;;;;;;;3.92;2.22;;;;;;;22.64;34.03;100272.31;4944409;29;20304;-57
2021/05/26 07:00:37;;;;;;;6.05;3.22;;;;;;;22.43;34.56;100274.47;4948689;29;20098;-58
2021/05/26 07:03:04;;;;;;;4.80;2.40;;;;;;;22.62;34.72;100280.31;4950112;29;20047;-56
2021/05/26 07:05:32;;;;;;;5.45;2.78;;;;;;;22.68;34.44;100274.66;4952607;29;20056;-58
2021/05/26 07:07:58;;;;;;;14.98;3.47;;;;;;;22.89;35.59;100275.09;4942802;28;20023;-59
2021/05/26 07:10:24;;;;;;;7.57;3.65;;;;;;;22.92;35.12;100277.53;4945935;29;20580;-58
2021/05/26 07:12:52;;;;;;;9.15;2.90;;;;;;;22.86;34.86;100272.66;4953627;29;20063;-58
2021/05/26 07:15:18;;;;;;;7.10;2.97;;;;;;;22.63;34.15;100270.59;4944925;29;20144;-58
2021/05/26 07:17:45;;;;;;;7.22;2.47;;;;;;;22.24;35.09;100271.13;4952689;29;20220;-58
2021/05/26 07:20:12;;;;;;;4.43;1.90;;;;;;;22.48;35.21;100267.97;4943100;29;20034;-59
2021/05/26 07:22:39;;;;;;;5.65;2.10;;;;;;;22.53;34.77;100268.56;4949521;29;20074;-58
2021/05/26 07:25:05;;;;;;;4.30;1.80;;;;;;;22.55;34.58;100265.81;4951864;29;20031;-59
2021/05/26 07:27:32;;;;;;;5.82;1.98;;;;;;;22.42;34.27;100260.44;4927189;29;20028;-59
2021/05/26 07:29:57;;;;;;;4.63;1.80;;;;;;;22.36;34.38;100259.03;4927002;29;20099;-57
2021/05/26 07:32:23;;;;;;;4.78;1.73;;;;;;;22.36;34.79;100266.09;4943439;29;20027;-58
2021/05/26 07:34:49;;;;;;;6.40;1.95;;;;;;;22.38;36.26;100256.28;4947961;29;20039;-58
2021/05/26 07:37:15;;;;;;;6.15;2.00;;;;;;;22.47;35.62;100258.34;4947095;29;20051;-58
2021/05/26 07:39:41;;;;;;;5.00;2.08;;;;;;;22.59;37.09;100259.41;4952218;29;20045;-57
2021/05/26 07:42:08;;;;;;;5.50;2.00;;;;;;;22.62;35.67;100253.94;4952393;29;20027;-59
2021/05/26 07:44:35;;;;;;;7.13;2.20;;;;;;;22.61;35.49;100260.13;4950505;29;20082;-58
2021/05/26 07:47:01;;;;;;;4.90;1.67;;;;;;;22.77;35.08;100267.09;4945381;29;20055;-58
2021/05/26 07:49:27;;;;;;;4.32;1.90;;;;;;;22.85;36.02;100257.75;4947189;29;20308;-58
2021/05/26 07:51:55;;;;;;;4.97;1.80;;;;;;;23.06;35.32;100258.16;4949289;29;20023;-58
2021/05/26 07:54:23;;;;;;;2.67;1.90;;;;;;;23.24;35.19;100252.66;4947159;29;20041;-58
2021/05/26 07:56:50;;;;;;;4.15;1.70;;;;;;;23.06;34.02;100244.13;4946440;29;20035;-58
2021/05/26 07:59:16;;;;;;;4.32;2.08;;;;;;;22.65;35.02;100237.03;4945339;29;20408;-58
2021/05/26 08:01:42;;;;;;;4.28;1.75;;;;;;;22.70;35.39;100248.16;4951636;29;20185;-59
2021/05/26 08:04:09;;;;;;;5.20;1.98;;;;;;;22.89;35.80;100251.31;4945366;29;20027;-58
2021/05/26 08:06:35;;;;;;;4.30;1.63;;;;;;;22.61;34.34;100251.38;4949006;29;20094;-59
2021/05/26 08:09:02;;;;;;;3.10;1.67;;;;;;;22.13;34.54;100244.56;4949445;29;20024;-59
2021/05/26 08:11:28;;;;;;;7.38;2.20;;;;;;;22.09;34.25;100244.84;4944977;29;20043;-58
2021/05/26 08:13:55;;;;;;;2.83;1.65;;;;;;;22.31;34.60;100237.31;4944878;29;20024;-58
2021/05/26 08:16:21;;;;;;;2.88;1.67;;;;;;;22.47;34.33;100234.59;4937359;29;20270;-58
2021/05/26 08:18:47;;;;;;;2.70;1.60;;;;;;;22.53;34.93;100238.66;4944335;29;20064;-57
2021/05/26 08:21:15;;;;;;;2.88;1.90;;;;;;;22.67;36.43;100235.97;4944619;29;20035;-58
2021/05/26 08:23:41;;;;;;;3.05;1.70;;;;;;;22.73;33.44;100234.75;4944675;29;20036;-59
2021/05/26 08:26:23;;;;;;;6.25;1.98;;;;;;;22.91;33.85;100217.72;4944609;29;20081;-59
2021/05/26 08:28:51;;;;;;;5.68;1.85;;;;;;;23.03;33.76;100228.44;4944639;29;20035;-58
2021/05/26 08:31:17;;;;;;;5.50;1.90;;;;;;;22.75;33.40;100220.50;4940774;29;20051;-59
2021/05/26 08:33:43;;;;;;;2.05;1.58;;;;;;;22.87;33.43;100226.81;4944503;29;20223;-58
2021/05/26 08:36:10;;;;;;;5.38;1.70;;;;;;;23.03;32.64;100215.22;4944214;29;20100;-58
2021/05/26 08:38:36;;;;;;;5.43;2.00;;;;;;;23.33;34.27;100214.19;4943393;29;20028;-58
2021/05/26 08:41:06;;;;;;;2.35;1.55;;;;;;;23.30;33.39;100215.28;4944100;29;20193;-58
2021/05/26 08:43:35;;;;;;;4.72;1.85;;;;;;;22.73;33.65;100169.59;4943761;29;20042;-58
2021/05/26 08:46:03;;;;;;;5.22;2.03;;;;;;;22.52;34.02;100173.63;4943247;29;20027;-58
2021/05/26 08:48:30;;;;;;;4.13;2.17;;;;;;;22.98;34.80;100212.06;4943365;29;20216;-58
2021/05/26 08:50:56;;;;;;;2.97;1.98;;;;;;;23.05;34.02;100218.63;4943484;29;20209;-58
2021/05/26 08:53:23;;;;;;;8.23;2.30;;;;;;;22.63;34.56;100218.66;4941974;29;20224;-59
2021/05/26 08:55:49;;;;;;;3.30;1.80;;;;;;;22.71;36.22;100231.38;4943569;29;20039;-58
2021/05/26 08:58:14;;;;;;;7.55;2.13;;;;;;;22.66;35.45;100225.50;4943989;29;20031;-58
2021/05/26 09:00:41;;;;;;;6.47;2.10;;;;;;;22.37;33.77;100222.91;4936845;29;20043;-58
2021/05/26 09:03:06;;;;;;;4.57;2.00;;;;;;;22.31;33.76;100210.91;4936706;29;20099;-59
2021/05/26 09:05:34;;;;;;;6.38;2.50;;;;;;;22.51;34.49;100222.91;4924514;29;20024;-58
2021/05/26 09:08:17;;;;;;;5.28;2.20;;;;;;;22.24;34.98;100165.59;4934280;29;20031;-59
2021/05/26 09:10:53;;;;;;;8.82;2.22;;;;;;;22.54;35.72;100220.06;4931034;29;20070;-59
2021/05/26 09:13:45;;;;;;;3.42;1.60;;;;;;;23.01;34.80;100206.56;4933840;29;20036;-58
2021/05/26 09:16:22;;;;;;;4.97;1.52;;;;;;;23.35;34.29;100207.03;4925830;29;20051;-58
2021/05/26 09:18:55;;;;;;;3.15;1.80;;;;;;;23.36;34.28;100201.63;4926262;29;20343;-57
2021/05/26 09:21:35;;;;;;;3.20;1.52;;;;;;;22.90;32.56;100207.25;4937319;29;20031;-58
2021/05/26 09:24:22;;;;;;;7.90;1.88;;;;;;;23.30;33.47;100204.69;4943389;29;20158;-58
2021/05/26 09:26:51;;;;;;;2.28;1.73;;;;;;;23.53;31.76;100208.44;4926015;29;20042;-57
2021/05/26 09:29:28;;;;;;;3.42;1.52;;;;;;;23.42;31.66;100187.16;4925977;29;20212;-58
2021/05/26 09:32:10;;;;;;;2.05;1.63;;;;;;;23.42;31.25;100155.44;4929181;29;20099;-58
2021/05/26 09:34:38;;;;;;;4.38;1.70;;;;;;;23.98;32.39;100220.47;4942627;29;20147;-58
2021/05/26 09:37:05;;;;;;;3.80;1.67;;;;;;;23.84;31.86;100208.97;4947992;29;20040;-58
2021/05/26 09:39:52;;;;;;;4.05;1.60;;;;;;;23.48;30.65;100154.19;4947886;29;20023;-58
2021/05/26 09:42:37;;;;;;;2.75;1.80;;;;;;;23.74;32.61;100198.22;4947351;29;20032;-58
2021/05/26 09:45:12;;;;;;;5.57;1.67;;;;;;;24.01;32.62;100184.03;4940294;29;20051;-58
2021/05/26 09:47:49;;;;;;;6.05;1.63;;;;;;;24.16;32.12;100195.38;4947868;29;20390;-58
2021/05/26 09:50:34;;;;;;;3.42;1.70;;;;;;;24.06;30.99;100189.03;4947930;29;20056;-58
2021/05/26 09:53:00;;;;;;;4.45;1.60;;;;;;;23.78;30.86;100186.44;4947412;29;20043;-58
2021/05/26 09:55:38;;;;;;;4.68;1.80;;;;;;;23.36;30.97;100142.63;4943595;29;20030;-59
2021/05/26 09:58:09;;;;;;;5.50;1.80;;;;;;;23.67;31.08;100130.81;4932810;29;20311;-58
2021/05/26 10:00:36;;;;;;;8.00;1.93;;;;;;;24.05;31.41;100176.75;4942019;29;20043;-58
2021/05/26 10:03:02;;;;;;;5.80;1.90;;;;;;;24.14;31.93;100176.09;4940327;29;20439;-58
2021/05/26 10:05:28;;;;;;;3.63;1.92;;;;;;;24.27;31.94;100184.88;4929175;29;20036;-58
2021/05/26 10:07:59;;;;;;;6.70;2.10;;;;;;;24.50;33.08;100173.56;4929020;29;20047;-59
2021/05/26 10:10:30;;;;;;;4.03;1.88;;;;;;;23.93;32.05;100129.00;4940501;29;20334;-59
2021/05/26 10:13:01;;;;;;;4.25;1.70;;;;;;;24.18;30.92;100169.63;4947037;29;20059;-59
2021/05/26 10:15:27;;;;;;;3.95;1.95;;;;;;;24.34;31.95;100174.66;4947279;29;20036;-59
2021/05/26 10:17:55;;;;;;;3.38;1.67;;;;;;;24.39;30.98;100182.31;4947103;29;20225;-58
2021/05/26 10:20:26;;;;;;;5.03;1.70;;;;;;;24.37;32.24;100174.47;4928711;29;20052;-57
2021/05/26 10:22:55;;;;;;;4.83;2.10;;;;;;;24.19;31.37;100147.50;4928722;29;20036;-59
2021/05/26 10:25:21;;;;;;;8.65;1.88;;;;;;;24.41;31.38;100170.66;4941086;29;20042;-57
2021/05/26 10:27:54;;;;;;;5.03;1.60;;;;;;;24.67;31.91;100164.44;4947266;29;20559;-58
2021/05/26 10:30:24;;;;;;;2.35;1.50;;;;;;;24.21;30.38;100119.09;4947406;29;20221;-58
2021/05/26 10:32:56;;;;;;;5.75;1.90;;;;;;;24.09;30.28;100162.34;4932142;29;20039;-59
2021/05/26 10:35:32;;;;;;;;;;;;;;;24.00;31.14;100157.69;4929085;29;20335;-57
2021/05/26 10:38:07;;;;;;;4.90;1.92;;;;;;;24.10;32.05;100148.16;4935999;29;19930;-59
2021/05/26 10:40:34;;;;;;;7.28;2.25;;;;;;;24.12;31.46;100164.78;4933595;29;20038;-58
2021/05/26 10:43:23;;;;;;;4.72;1.70;;;;;;;23.85;31.50;100149.84;4945894;29;20039;-59
2021/05/26 10:45:52;;;;;;;3.67;1.88;;;;;;;24.26;31.64;100158.50;4946577;29;20043;-58
2021/05/26 10:48:40;;;;;;;3.53;1.85;;;;;;;24.02;31.62;100156.63;4945829;29;20075;-59
2021/05/26 10:51:07;;;;;;;2.03;1.70;;;;;;;24.22;31.46;100157.03;4946423;29;20074;-58
2021/05/26 10:53:37;;;;;;;4.25;1.80;;;;;;;24.50;31.68;100137.38;4933230;29;20067;-59
2021/05/26 10:56:03;;;;;;;5.88;1.80;;;;;;;24.29;30.59;100150.34;4936830;29;20032;-59
2021/05/26 10:58:42;;;;;;;4.40;1.92;;;;;;;24.23;31.23;100141.03;4946602;29;20065;-65
2021/05/26 11:01:12;;;;;;;2.30;1.70;;;;;;;24.57;31.51;100133.31;4946149;29;20034;-66
2021/05/26 11:03:39;;;;;;;3.83;1.70;;;;;;;24.69;31.01;100138.69;4934741;29;20042;-66
2021/05/26 11:06:10;;;;;;;5.93;2.08;;;;;;;24.83;32.05;100127.94;4928076;29;20128;-66
2021/05/26 11:08:41;;;;;;;4.07;1.80;;;;;;;24.89;31.19;100129.28;4940877;29;20086;-66
2021/05/26 11:11:25;;;;;;;6.00;1.67;;;;;;;24.55;30.31;100121.13;4946109;29;20054;-66
2021/05/26 11:14:13;;;;;;;4.10;1.52;;;;;;;24.48;30.21;100128.66;4940476;29;20074;-65
2021/05/26 11:16:49;;;;;;;5.05;2.10;;;;;;;24.19;30.42;100121.03;4933649;29;20036;-66
2021/05/26 11:19:20;;;;;;;4.28;1.98;;;;;;;24.02;31.34;100073.75;4929761;29;20342;-65
2021/05/26 11:21:52;;;;;;;7.28;2.03;;;;;;;24.25;31.50;100117.09;4931612;29;20103;-65
2021/05/26 11:24:18;;;;;;;5.22;1.90;;;;;;;24.28;31.00;100099.22;4936788;29;20047;-66